sensor_id;sensor_type;location;lat;lon;timestamp;P1;durP1;ratioP1;P2;durP2;ratioP2
52057;SDS011;38063;53.210;6.504;2024-01-30T00:02:20;33.55;;;17.08;;
52057;SDS011;38063;53.210;6.504;2024-01-30T00:04:46;29.35;;;17.00;;
52057;SDS011;38063;53.210;6.504;2024-01-30T00:07:12;29.77;;;17.77;;
52057;SDS011;38063;53.210;6.504;2024-01-30T00:09:38;30.38;;;18.35;;
52057;SDS011;38063;53.210;6.504;2024-01-30T00:12:07;30.42;;;17.58;;
52057;SDS011;38063;53.210;6.504;2024-01-30T00:14:32;27.55;;;16.63;;
52057;SDS011;38063;53.210;6.504;2024-01-30T00:16:58;26.00;;;17.23;;
52057;SDS011;38063;53.210;6.504;2024-01-30T00:19:23;28.92;;;18.30;;
52057;SDS011;38063;53.210;6.504;2024-01-30T00:21:49;29.67;;;17.98;;
52057;SDS011;38063;53.210;6.504;2024-01-30T00:24:15;34.30;;;17.80;;
52057;SDS011;38063;53.210;6.504;2024-01-30T00:26:40;33.42;;;17.52;;
52057;SDS011;38063;53.210;6.504;2024-01-30T00:29:06;30.15;;;18.00;;
52057;SDS011;38063;53.210;6.504;2024-01-30T00:31:32;31.70;;;18.58;;
52057;SDS011;38063;53.210;6.504;2024-01-30T00:33:57;33.97;;;18.67;;
52057;SDS011;38063;53.210;6.504;2024-01-30T00:36:23;33.40;;;18.90;;
52057;SDS011;38063;53.210;6.504;2024-01-30T00:38:49;28.90;;;18.75;;
52057;SDS011;38063;53.210;6.504;2024-01-30T00:41:15;31.85;;;17.73;;
52057;SDS011;38063;53.210;6.504;2024-01-30T00:43:42;31.27;;;17.95;;
52057;SDS011;38063;53.210;6.504;2024-01-30T00:46:08;32.00;;;19.30;;
52057;SDS011;38063;53.210;6.504;2024-01-30T00:48:34;32.47;;;18.83;;
52057;SDS011;38063;53.210;6.504;2024-01-30T00:50:59;28.77;;;17.98;;
52057;SDS011;38063;53.210;6.504;2024-01-30T00:53:26;28.77;;;17.77;;
52057;SDS011;38063;53.210;6.504;2024-01-30T00:55:51;31.65;;;18.20;;
52057;SDS011;38063;53.210;6.504;2024-01-30T00:58:17;30.55;;;19.30;;
52057;SDS011;38063;53.210;6.504;2024-01-30T01:00:44;33.92;;;19.17;;
52057;SDS011;38063;53.210;6.504;2024-01-30T01:03:10;32.45;;;19.63;;
52057;SDS011;38063;53.210;6.504;2024-01-30T01:05:35;35.72;;;19.60;;
52057;SDS011;38063;53.210;6.504;2024-01-30T01:08:01;31.42;;;18.92;;
52057;SDS011;38063;53.210;6.504;2024-01-30T01:10:27;32.50;;;20.00;;
52057;SDS011;38063;53.210;6.504;2024-01-30T01:12:53;35.58;;;20.13;;
52057;SDS011;38063;53.210;6.504;2024-01-30T01:15:18;34.63;;;19.38;;
52057;SDS011;38063;53.210;6.504;2024-01-30T01:17:44;33.97;;;19.27;;
52057;SDS011;38063;53.210;6.504;2024-01-30T01:20:10;34.40;;;18.55;;
52057;SDS011;38063;53.210;6.504;2024-01-30T01:22:36;30.08;;;19.77;;
52057;SDS011;38063;53.210;6.504;2024-01-30T01:25:03;35.25;;;19.77;;
52057;SDS011;38063;53.210;6.504;2024-01-30T01:27:32;37.13;;;20.25;;
52057;SDS011;38063;53.210;6.504;2024-01-30T01:29:59;35.08;;;19.15;;
52057;SDS011;38063;53.210;6.504;2024-01-30T01:32:25;31.20;;;19.10;;
52057;SDS011;38063;53.210;6.504;2024-01-30T01:34:51;32.60;;;19.35;;
52057;SDS011;38063;53.210;6.504;2024-01-30T01:37:16;33.33;;;20.00;;
52057;SDS011;38063;53.210;6.504;2024-01-30T01:39:42;33.72;;;19.02;;
52057;SDS011;38063;53.210;6.504;2024-01-30T01:42:07;34.20;;;19.38;;
52057;SDS011;38063;53.210;6.504;2024-01-30T01:44:33;31.63;;;20.45;;
52057;SDS011;38063;53.210;6.504;2024-01-30T01:46:59;32.70;;;19.80;;
52057;SDS011;38063;53.210;6.504;2024-01-30T01:49:25;38.13;;;20.50;;
52057;SDS011;38063;53.210;6.504;2024-01-30T01:51:54;32.53;;;19.27;;
52057;SDS011;38063;53.210;6.504;2024-01-30T01:54:24;36.72;;;20.52;;
52057;SDS011;38063;53.210;6.504;2024-01-30T01:56:51;35.25;;;19.95;;
52057;SDS011;38063;53.210;6.504;2024-01-30T01:59:18;33.78;;;19.02;;
52057;SDS011;38063;53.210;6.504;2024-01-30T02:01:44;32.10;;;20.05;;
52057;SDS011;38063;53.210;6.504;2024-01-30T02:04:14;41.38;;;20.20;;
52057;SDS011;38063;53.210;6.504;2024-01-30T02:06:40;32.42;;;19.88;;
52057;SDS011;38063;53.210;6.504;2024-01-30T02:09:06;37.75;;;21.58;;
52057;SDS011;38063;53.210;6.504;2024-01-30T02:11:32;32.45;;;19.50;;
52057;SDS011;38063;53.210;6.504;2024-01-30T02:14:02;33.80;;;19.58;;
52057;SDS011;38063;53.210;6.504;2024-01-30T02:16:29;32.78;;;19.85;;
52057;SDS011;38063;53.210;6.504;2024-01-30T02:18:55;38.03;;;20.33;;
52057;SDS011;38063;53.210;6.504;2024-01-30T02:21:20;38.22;;;20.98;;
52057;SDS011;38063;53.210;6.504;2024-01-30T02:23:46;31.98;;;19.00;;
52057;SDS011;38063;53.210;6.504;2024-01-30T02:26:13;34.78;;;19.13;;
52057;SDS011;38063;53.210;6.504;2024-01-30T02:28:39;34.10;;;19.98;;
52057;SDS011;38063;53.210;6.504;2024-01-30T02:31:04;38.78;;;20.40;;
52057;SDS011;38063;53.210;6.504;2024-01-30T02:33:30;32.88;;;19.48;;
52057;SDS011;38063;53.210;6.504;2024-01-30T02:35:56;29.98;;;19.42;;
52057;SDS011;38063;53.210;6.504;2024-01-30T02:38:22;33.20;;;18.67;;
52057;SDS011;38063;53.210;6.504;2024-01-30T02:40:48;31.20;;;19.92;;
52057;SDS011;38063;53.210;6.504;2024-01-30T02:43:15;39.35;;;20.60;;
52057;SDS011;38063;53.210;6.504;2024-01-30T02:45:41;34.53;;;21.33;;
52057;SDS011;38063;53.210;6.504;2024-01-30T02:48:07;36.13;;;20.23;;
52057;SDS011;38063;53.210;6.504;2024-01-30T02:50:33;32.15;;;20.38;;
52057;SDS011;38063;53.210;6.504;2024-01-30T02:52:59;34.80;;;20.42;;
52057;SDS011;38063;53.210;6.504;2024-01-30T02:55:25;37.10;;;21.52;;
52057;SDS011;38063;53.210;6.504;2024-01-30T02:57:50;33.33;;;18.90;;
52057;SDS011;38063;53.210;6.504;2024-01-30T03:00:16;38.38;;;21.45;;
52057;SDS011;38063;53.210;6.504;2024-01-30T03:02:42;33.80;;;19.55;;
52057;SDS011;38063;53.210;6.504;2024-01-30T03:05:08;33.47;;;20.92;;
52057;SDS011;38063;53.210;6.504;2024-01-30T03:07:33;32.45;;;18.90;;
52057;SDS011;38063;53.210;6.504;2024-01-30T03:09:59;33.65;;;19.70;;
52057;SDS011;38063;53.210;6.504;2024-01-30T03:12:25;34.15;;;19.58;;
52057;SDS011;38063;53.210;6.504;2024-01-30T03:14:51;34.00;;;19.98;;
52057;SDS011;38063;53.210;6.504;2024-01-30T03:17:17;28.48;;;18.85;;
52057;SDS011;38063;53.210;6.504;2024-01-30T03:19:43;30.88;;;19.15;;
52057;SDS011;38063;53.210;6.504;2024-01-30T03:22:08;31.98;;;18.73;;
52057;SDS011;38063;53.210;6.504;2024-01-30T03:24:34;30.15;;;19.08;;
52057;SDS011;38063;53.210;6.504;2024-01-30T03:27:00;36.72;;;19.75;;
52057;SDS011;38063;53.210;6.504;2024-01-30T03:29:26;31.08;;;19.58;;
52057;SDS011;38063;53.210;6.504;2024-01-30T03:31:52;35.67;;;19.52;;
52057;SDS011;38063;53.210;6.504;2024-01-30T03:34:17;31.33;;;18.45;;
52057;SDS011;38063;53.210;6.504;2024-01-30T03:36:43;34.65;;;19.05;;
52057;SDS011;38063;53.210;6.504;2024-01-30T03:39:09;31.60;;;18.48;;
52057;SDS011;38063;53.210;6.504;2024-01-30T03:41:34;33.90;;;18.45;;
52057;SDS011;38063;53.210;6.504;2024-01-30T03:44:00;33.53;;;19.75;;
52057;SDS011;38063;53.210;6.504;2024-01-30T03:46:25;30.40;;;18.27;;
52057;SDS011;38063;53.210;6.504;2024-01-30T03:48:51;34.33;;;20.30;;
52057;SDS011;38063;53.210;6.504;2024-01-30T03:51:17;30.08;;;18.42;;
52057;SDS011;38063;53.210;6.504;2024-01-30T03:53:42;39.30;;;19.65;;
52057;SDS011;38063;53.210;6.504;2024-01-30T03:56:09;31.27;;;18.45;;
52057;SDS011;38063;53.210;6.504;2024-01-30T03:58:35;35.65;;;18.05;;
52057;SDS011;38063;53.210;6.504;2024-01-30T04:01:00;28.38;;;17.70;;
52057;SDS011;38063;53.210;6.504;2024-01-30T04:03:26;28.73;;;17.85;;
52057;SDS011;38063;53.210;6.504;2024-01-30T04:05:52;36.47;;;19.55;;
52057;SDS011;38063;53.210;6.504;2024-01-30T04:08:18;32.33;;;18.70;;
52057;SDS011;38063;53.210;6.504;2024-01-30T04:10:44;29.98;;;18.50;;
52057;SDS011;38063;53.210;6.504;2024-01-30T04:13:09;31.42;;;17.48;;
52057;SDS011;38063;53.210;6.504;2024-01-30T04:15:35;28.38;;;17.70;;
52057;SDS011;38063;53.210;6.504;2024-01-30T04:18:01;32.65;;;18.85;;
52057;SDS011;38063;53.210;6.504;2024-01-30T04:20:27;30.10;;;17.40;;
52057;SDS011;38063;53.210;6.504;2024-01-30T04:22:52;31.13;;;18.08;;
52057;SDS011;38063;53.210;6.504;2024-01-30T04:25:18;30.60;;;18.52;;
52057;SDS011;38063;53.210;6.504;2024-01-30T04:27:44;34.08;;;18.80;;
52057;SDS011;38063;53.210;6.504;2024-01-30T04:30:09;30.75;;;18.40;;
52057;SDS011;38063;53.210;6.504;2024-01-30T04:32:35;29.65;;;18.15;;
52057;SDS011;38063;53.210;6.504;2024-01-30T04:35:02;31.58;;;17.73;;
52057;SDS011;38063;53.210;6.504;2024-01-30T04:37:28;29.25;;;17.25;;
52057;SDS011;38063;53.210;6.504;2024-01-30T04:39:53;29.45;;;17.88;;
52057;SDS011;38063;53.210;6.504;2024-01-30T04:42:19;33.67;;;18.50;;
52057;SDS011;38063;53.210;6.504;2024-01-30T04:44:44;27.95;;;18.88;;
52057;SDS011;38063;53.210;6.504;2024-01-30T04:47:10;30.15;;;17.98;;
52057;SDS011;38063;53.210;6.504;2024-01-30T04:49:38;32.13;;;18.73;;
52057;SDS011;38063;53.210;6.504;2024-01-30T04:52:05;28.77;;;17.50;;
52057;SDS011;38063;53.210;6.504;2024-01-30T04:54:31;32.88;;;18.73;;
52057;SDS011;38063;53.210;6.504;2024-01-30T04:56:57;27.73;;;17.90;;
52057;SDS011;38063;53.210;6.504;2024-01-30T04:59:23;32.88;;;18.17;;
52057;SDS011;38063;53.210;6.504;2024-01-30T05:01:49;31.08;;;18.52;;
52057;SDS011;38063;53.210;6.504;2024-01-30T05:04:15;29.48;;;17.80;;
52057;SDS011;38063;53.210;6.504;2024-01-30T05:06:40;32.60;;;17.63;;
52057;SDS011;38063;53.210;6.504;2024-01-30T05:09:06;33.92;;;17.42;;
52057;SDS011;38063;53.210;6.504;2024-01-30T05:11:36;31.42;;;17.42;;
52057;SDS011;38063;53.210;6.504;2024-01-30T05:14:03;29.60;;;17.55;;
52057;SDS011;38063;53.210;6.504;2024-01-30T05:16:29;29.23;;;17.25;;
52057;SDS011;38063;53.210;6.504;2024-01-30T05:18:54;28.48;;;17.08;;
52057;SDS011;38063;53.210;6.504;2024-01-30T05:21:20;29.52;;;17.85;;
52057;SDS011;38063;53.210;6.504;2024-01-30T05:23:45;27.75;;;16.75;;
52057;SDS011;38063;53.210;6.504;2024-01-30T05:26:11;31.65;;;17.58;;
52057;SDS011;38063;53.210;6.504;2024-01-30T05:28:37;27.92;;;17.05;;
52057;SDS011;38063;53.210;6.504;2024-01-30T05:31:02;29.67;;;16.85;;
52057;SDS011;38063;53.210;6.504;2024-01-30T05:33:28;27.63;;;17.02;;
52057;SDS011;38063;53.210;6.504;2024-01-30T05:35:54;27.83;;;16.80;;
52057;SDS011;38063;53.210;6.504;2024-01-30T05:38:20;34.92;;;17.63;;
52057;SDS011;38063;53.210;6.504;2024-01-30T05:40:45;26.75;;;17.00;;
52057;SDS011;38063;53.210;6.504;2024-01-30T05:43:11;26.10;;;15.32;;
52057;SDS011;38063;53.210;6.504;2024-01-30T05:45:37;26.38;;;15.73;;
52057;SDS011;38063;53.210;6.504;2024-01-30T05:48:03;28.50;;;16.17;;
52057;SDS011;38063;53.210;6.504;2024-01-30T05:50:29;26.08;;;16.02;;
52057;SDS011;38063;53.210;6.504;2024-01-30T05:52:55;25.27;;;14.88;;
52057;SDS011;38063;53.210;6.504;2024-01-30T05:55:21;24.77;;;15.73;;
52057;SDS011;38063;53.210;6.504;2024-01-30T05:57:46;27.67;;;15.32;;
52057;SDS011;38063;53.210;6.504;2024-01-30T06:00:12;24.15;;;15.85;;
52057;SDS011;38063;53.210;6.504;2024-01-30T06:02:38;22.73;;;14.82;;
52057;SDS011;38063;53.210;6.504;2024-01-30T06:05:04;23.40;;;15.00;;
52057;SDS011;38063;53.210;6.504;2024-01-30T06:07:30;25.50;;;15.65;;
52057;SDS011;38063;53.210;6.504;2024-01-30T06:09:56;24.95;;;14.95;;
52057;SDS011;38063;53.210;6.504;2024-01-30T06:12:21;27.17;;;15.05;;
52057;SDS011;38063;53.210;6.504;2024-01-30T06:14:47;24.35;;;14.73;;
52057;SDS011;38063;53.210;6.504;2024-01-30T06:17:13;24.83;;;14.98;;
52057;SDS011;38063;53.210;6.504;2024-01-30T06:19:38;26.85;;;15.32;;
52057;SDS011;38063;53.210;6.504;2024-01-30T06:22:04;26.35;;;15.25;;
52057;SDS011;38063;53.210;6.504;2024-01-30T06:24:30;25.33;;;15.45;;
52057;SDS011;38063;53.210;6.504;2024-01-30T06:26:56;22.95;;;15.10;;
52057;SDS011;38063;53.210;6.504;2024-01-30T06:29:22;23.02;;;14.50;;
52057;SDS011;38063;53.210;6.504;2024-01-30T06:31:49;23.33;;;14.45;;
52057;SDS011;38063;53.210;6.504;2024-01-30T06:34:15;23.50;;;14.43;;
52057;SDS011;38063;53.210;6.504;2024-01-30T06:36:41;26.55;;;14.38;;
52057;SDS011;38063;53.210;6.504;2024-01-30T06:39:07;21.52;;;14.15;;
52057;SDS011;38063;53.210;6.504;2024-01-30T06:41:32;26.17;;;14.50;;
52057;SDS011;38063;53.210;6.504;2024-01-30T06:43:58;21.98;;;13.90;;
52057;SDS011;38063;53.210;6.504;2024-01-30T06:46:24;21.90;;;14.15;;
52057;SDS011;38063;53.210;6.504;2024-01-30T06:48:50;21.23;;;14.15;;
52057;SDS011;38063;53.210;6.504;2024-01-30T06:51:16;24.23;;;14.73;;
52057;SDS011;38063;53.210;6.504;2024-01-30T06:53:41;27.83;;;15.00;;
52057;SDS011;38063;53.210;6.504;2024-01-30T06:56:07;22.90;;;14.18;;
52057;SDS011;38063;53.210;6.504;2024-01-30T06:58:33;24.05;;;14.48;;
52057;SDS011;38063;53.210;6.504;2024-01-30T07:00:59;23.50;;;14.05;;
52057;SDS011;38063;53.210;6.504;2024-01-30T07:03:24;22.00;;;13.93;;
52057;SDS011;38063;53.210;6.504;2024-01-30T07:05:50;21.02;;;13.27;;
52057;SDS011;38063;53.210;6.504;2024-01-30T07:08:16;25.55;;;14.95;;
52057;SDS011;38063;53.210;6.504;2024-01-30T07:10:42;24.88;;;14.23;;
52057;SDS011;38063;53.210;6.504;2024-01-30T07:13:09;24.38;;;14.63;;
52057;SDS011;38063;53.210;6.504;2024-01-30T07:15:37;23.20;;;13.73;;
52057;SDS011;38063;53.210;6.504;2024-01-30T07:18:03;26.20;;;14.43;;
52057;SDS011;38063;53.210;6.504;2024-01-30T07:20:30;21.85;;;13.93;;
52057;SDS011;38063;53.210;6.504;2024-01-30T07:22:57;21.77;;;13.25;;
52057;SDS011;38063;53.210;6.504;2024-01-30T07:25:23;21.92;;;13.93;;
52057;SDS011;38063;53.210;6.504;2024-01-30T07:27:52;22.50;;;13.45;;
52057;SDS011;38063;53.210;6.504;2024-01-30T07:30:18;21.75;;;13.63;;
52057;SDS011;38063;53.210;6.504;2024-01-30T07:32:44;21.33;;;14.48;;
52057;SDS011;38063;53.210;6.504;2024-01-30T07:35:10;21.63;;;14.45;;
52057;SDS011;38063;53.210;6.504;2024-01-30T07:37:36;25.83;;;13.88;;
52057;SDS011;38063;53.210;6.504;2024-01-30T07:40:02;22.88;;;14.27;;
52057;SDS011;38063;53.210;6.504;2024-01-30T07:42:28;28.20;;;14.50;;
52057;SDS011;38063;53.210;6.504;2024-01-30T07:44:54;20.70;;;13.30;;
52057;SDS011;38063;53.210;6.504;2024-01-30T07:47:19;24.80;;;14.13;;
52057;SDS011;38063;53.210;6.504;2024-01-30T07:49:45;20.08;;;13.15;;
52057;SDS011;38063;53.210;6.504;2024-01-30T07:52:11;21.50;;;13.38;;
52057;SDS011;38063;53.210;6.504;2024-01-30T07:54:49;21.75;;;13.60;;
52057;SDS011;38063;53.210;6.504;2024-01-30T07:57:15;22.80;;;13.75;;
52057;SDS011;38063;53.210;6.504;2024-01-30T07:59:42;24.30;;;13.13;;
52057;SDS011;38063;53.210;6.504;2024-01-30T08:02:14;23.42;;;13.50;;
52057;SDS011;38063;53.210;6.504;2024-01-30T08:04:39;21.75;;;13.25;;
52057;SDS011;38063;53.210;6.504;2024-01-30T08:07:05;22.40;;;13.43;;
52057;SDS011;38063;53.210;6.504;2024-01-30T08:09:31;23.95;;;13.60;;
52057;SDS011;38063;53.210;6.504;2024-01-30T08:11:56;21.20;;;13.18;;
52057;SDS011;38063;53.210;6.504;2024-01-30T08:14:22;26.65;;;13.23;;
52057;SDS011;38063;53.210;6.504;2024-01-30T08:16:48;22.58;;;13.55;;
52057;SDS011;38063;53.210;6.504;2024-01-30T08:19:17;24.77;;;13.75;;
52057;SDS011;38063;53.210;6.504;2024-01-30T08:21:42;20.23;;;12.65;;
52057;SDS011;38063;53.210;6.504;2024-01-30T08:24:08;18.77;;;12.63;;
52057;SDS011;38063;53.210;6.504;2024-01-30T08:26:33;23.65;;;12.85;;
52057;SDS011;38063;53.210;6.504;2024-01-30T08:29:00;26.95;;;14.00;;
52057;SDS011;38063;53.210;6.504;2024-01-30T08:31:26;25.90;;;13.02;;
52057;SDS011;38063;53.210;6.504;2024-01-30T08:33:52;21.40;;;13.50;;
52057;SDS011;38063;53.210;6.504;2024-01-30T08:36:18;20.85;;;12.75;;
52057;SDS011;38063;53.210;6.504;2024-01-30T08:38:44;25.83;;;13.05;;
52057;SDS011;38063;53.210;6.504;2024-01-30T08:41:09;20.98;;;12.57;;
52057;SDS011;38063;53.210;6.504;2024-01-30T08:43:35;24.90;;;12.95;;
52057;SDS011;38063;53.210;6.504;2024-01-30T08:46:01;22.48;;;12.80;;
52057;SDS011;38063;53.210;6.504;2024-01-30T08:48:28;23.67;;;13.13;;
52057;SDS011;38063;53.210;6.504;2024-01-30T08:50:54;25.67;;;13.50;;
52057;SDS011;38063;53.210;6.504;2024-01-30T08:53:20;21.67;;;13.32;;
52057;SDS011;38063;53.210;6.504;2024-01-30T08:55:46;22.38;;;13.23;;
52057;SDS011;38063;53.210;6.504;2024-01-30T08:58:11;25.70;;;13.05;;
52057;SDS011;38063;53.210;6.504;2024-01-30T09:00:37;25.27;;;13.43;;
52057;SDS011;38063;53.210;6.504;2024-01-30T09:03:03;20.85;;;11.85;;
52057;SDS011;38063;53.210;6.504;2024-01-30T09:05:29;19.83;;;11.40;;
52057;SDS011;38063;53.210;6.504;2024-01-30T09:07:55;23.48;;;12.95;;
52057;SDS011;38063;53.210;6.504;2024-01-30T09:10:21;19.98;;;11.98;;
52057;SDS011;38063;53.210;6.504;2024-01-30T09:12:47;19.17;;;12.45;;
52057;SDS011;38063;53.210;6.504;2024-01-30T09:15:12;20.08;;;11.90;;
52057;SDS011;38063;53.210;6.504;2024-01-30T09:17:38;22.95;;;13.48;;
52057;SDS011;38063;53.210;6.504;2024-01-30T09:20:04;22.40;;;12.40;;
52057;SDS011;38063;53.210;6.504;2024-01-30T09:22:30;26.77;;;12.98;;
52057;SDS011;38063;53.210;6.504;2024-01-30T09:24:56;22.88;;;12.70;;
52057;SDS011;38063;53.210;6.504;2024-01-30T09:27:22;23.40;;;12.23;;
52057;SDS011;38063;53.210;6.504;2024-01-30T09:29:48;23.15;;;12.30;;
52057;SDS011;38063;53.210;6.504;2024-01-30T09:32:14;31.67;;;14.63;;
52057;SDS011;38063;53.210;6.504;2024-01-30T09:34:40;22.15;;;12.43;;
52057;SDS011;38063;53.210;6.504;2024-01-30T09:37:06;23.45;;;12.63;;
52057;SDS011;38063;53.210;6.504;2024-01-30T09:39:32;22.52;;;12.25;;
52057;SDS011;38063;53.210;6.504;2024-01-30T09:42:17;19.88;;;11.88;;
52057;SDS011;38063;53.210;6.504;2024-01-30T09:44:52;21.83;;;11.52;;
52057;SDS011;38063;53.210;6.504;2024-01-30T09:47:18;19.38;;;11.77;;
52057;SDS011;38063;53.210;6.504;2024-01-30T09:49:44;21.95;;;11.38;;
52057;SDS011;38063;53.210;6.504;2024-01-30T09:52:10;23.08;;;12.07;;
52057;SDS011;38063;53.210;6.504;2024-01-30T09:54:37;22.13;;;11.30;;
52057;SDS011;38063;53.210;6.504;2024-01-30T09:57:04;22.10;;;11.85;;
52057;SDS011;38063;53.210;6.504;2024-01-30T09:59:30;20.30;;;12.45;;
52057;SDS011;38063;53.210;6.504;2024-01-30T10:01:56;22.45;;;12.82;;
52057;SDS011;38063;53.210;6.504;2024-01-30T10:04:22;21.30;;;11.13;;
52057;SDS011;38063;53.210;6.504;2024-01-30T10:06:48;23.85;;;12.23;;
52057;SDS011;38063;53.210;6.504;2024-01-30T10:09:15;25.23;;;11.32;;
52057;SDS011;38063;53.210;6.504;2024-01-30T10:11:41;19.40;;;11.65;;
52057;SDS011;38063;53.210;6.504;2024-01-30T10:14:07;18.10;;;11.50;;
52057;SDS011;38063;53.210;6.504;2024-01-30T10:16:34;21.42;;;10.98;;
52057;SDS011;38063;53.210;6.504;2024-01-30T10:18:59;24.13;;;11.52;;
52057;SDS011;38063;53.210;6.504;2024-01-30T10:21:25;19.90;;;10.95;;
52057;SDS011;38063;53.210;6.504;2024-01-30T10:23:51;18.63;;;10.80;;
52057;SDS011;38063;53.210;6.504;2024-01-30T10:26:17;28.65;;;12.02;;
52057;SDS011;38063;53.210;6.504;2024-01-30T10:28:42;21.88;;;11.15;;
52057;SDS011;38063;53.210;6.504;2024-01-30T10:31:08;16.83;;;10.73;;
52057;SDS011;38063;53.210;6.504;2024-01-30T10:33:34;20.92;;;10.93;;
52057;SDS011;38063;53.210;6.504;2024-01-30T10:36:01;25.17;;;11.65;;
52057;SDS011;38063;53.210;6.504;2024-01-30T10:38:28;20.65;;;11.18;;
52057;SDS011;38063;53.210;6.504;2024-01-30T10:40:58;21.77;;;11.02;;
52057;SDS011;38063;53.210;6.504;2024-01-30T10:43:47;24.35;;;11.25;;
52057;SDS011;38063;53.210;6.504;2024-01-30T10:46:17;22.83;;;10.43;;
52057;SDS011;38063;53.210;6.504;2024-01-30T10:48:46;22.50;;;11.45;;
52057;SDS011;38063;53.210;6.504;2024-01-30T10:51:22;19.33;;;10.38;;
52057;SDS011;38063;53.210;6.504;2024-01-30T10:53:48;22.00;;;11.18;;
52057;SDS011;38063;53.210;6.504;2024-01-30T10:56:16;18.27;;;10.98;;
52057;SDS011;38063;53.210;6.504;2024-01-30T10:58:42;22.45;;;11.93;;
52057;SDS011;38063;53.210;6.504;2024-01-30T11:01:07;18.27;;;10.63;;
52057;SDS011;38063;53.210;6.504;2024-01-30T11:03:34;19.30;;;10.82;;
52057;SDS011;38063;53.210;6.504;2024-01-30T11:06:02;20.60;;;10.30;;
52057;SDS011;38063;53.210;6.504;2024-01-30T11:08:28;16.77;;;10.75;;
52057;SDS011;38063;53.210;6.504;2024-01-30T11:10:57;18.50;;;9.63;;
52057;SDS011;38063;53.210;6.504;2024-01-30T11:13:29;20.27;;;10.70;;
52057;SDS011;38063;53.210;6.504;2024-01-30T11:15:59;20.52;;;10.10;;
52057;SDS011;38063;53.210;6.504;2024-01-30T11:18:29;16.90;;;9.80;;
52057;SDS011;38063;53.210;6.504;2024-01-30T11:20:56;19.40;;;9.25;;
52057;SDS011;38063;53.210;6.504;2024-01-30T11:23:23;19.55;;;8.55;;
52057;SDS011;38063;53.210;6.504;2024-01-30T11:25:49;16.00;;;8.32;;
52057;SDS011;38063;53.210;6.504;2024-01-30T11:28:17;18.92;;;7.68;;
52057;SDS011;38063;53.210;6.504;2024-01-30T11:30:43;13.52;;;7.35;;
52057;SDS011;38063;53.210;6.504;2024-01-30T11:33:12;17.60;;;6.82;;
52057;SDS011;38063;53.210;6.504;2024-01-30T11:35:42;20.75;;;6.90;;
52057;SDS011;38063;53.210;6.504;2024-01-30T11:38:09;9.98;;;5.85;;
52057;SDS011;38063;53.210;6.504;2024-01-30T11:40:36;12.25;;;6.05;;
52057;SDS011;38063;53.210;6.504;2024-01-30T11:43:07;17.52;;;6.30;;
52057;SDS011;38063;53.210;6.504;2024-01-30T11:45:34;7.95;;;4.57;;
52057;SDS011;38063;53.210;6.504;2024-01-30T11:48:01;10.95;;;5.00;;
52057;SDS011;38063;53.210;6.504;2024-01-30T11:50:32;15.70;;;4.97;;
52057;SDS011;38063;53.210;6.504;2024-01-30T11:53:01;23.85;;;5.65;;
52057;SDS011;38063;53.210;6.504;2024-01-30T11:55:28;10.52;;;4.30;;
52057;SDS011;38063;53.210;6.504;2024-01-30T11:57:55;11.90;;;4.15;;
52057;SDS011;38063;53.210;6.504;2024-01-30T12:00:25;10.98;;;4.22;;
52057;SDS011;38063;53.210;6.504;2024-01-30T12:02:51;9.55;;;3.92;;
52057;SDS011;38063;53.210;6.504;2024-01-30T12:05:27;9.85;;;4.35;;
52057;SDS011;38063;53.210;6.504;2024-01-30T12:07:53;16.45;;;3.72;;
52057;SDS011;38063;53.210;6.504;2024-01-30T12:10:19;6.72;;;3.03;;
52057;SDS011;38063;53.210;6.504;2024-01-30T12:12:46;2.67;;;1.80;;
52057;SDS011;38063;53.210;6.504;2024-01-30T12:15:13;4.07;;;1.95;;
52057;SDS011;38063;53.210;6.504;2024-01-30T12:17:39;2.55;;;1.35;;
52057;SDS011;38063;53.210;6.504;2024-01-30T12:20:09;3.70;;;1.20;;
52057;SDS011;38063;53.210;6.504;2024-01-30T12:22:39;3.75;;;1.20;;
52057;SDS011;38063;53.210;6.504;2024-01-30T12:25:09;4.10;;;1.00;;
52057;SDS011;38063;53.210;6.504;2024-01-30T12:27:36;1.70;;;0.80;;
52057;SDS011;38063;53.210;6.504;2024-01-30T12:30:06;5.10;;;1.00;;
52057;SDS011;38063;53.210;6.504;2024-01-30T12:32:36;10.27;;;1.00;;
52057;SDS011;38063;53.210;6.504;2024-01-30T12:35:02;3.53;;;0.88;;
52057;SDS011;38063;53.210;6.504;2024-01-30T12:37:29;4.60;;;1.30;;
52057;SDS011;38063;53.210;6.504;2024-01-30T12:39:56;4.72;;;0.80;;
52057;SDS011;38063;53.210;6.504;2024-01-30T12:42:22;6.55;;;0.93;;
52057;SDS011;38063;53.210;6.504;2024-01-30T12:44:48;1.42;;;0.75;;
52057;SDS011;38063;53.210;6.504;2024-01-30T12:47:15;4.55;;;0.85;;
52057;SDS011;38063;53.210;6.504;2024-01-30T12:49:43;1.80;;;1.00;;
52057;SDS011;38063;53.210;6.504;2024-01-30T12:52:10;2.47;;;0.80;;
52057;SDS011;38063;53.210;6.504;2024-01-30T12:54:46;2.60;;;0.80;;
52057;SDS011;38063;53.210;6.504;2024-01-30T12:57:15;2.85;;;0.70;;
52057;SDS011;38063;53.210;6.504;2024-01-30T12:59:41;2.72;;;0.80;;
52057;SDS011;38063;53.210;6.504;2024-01-30T13:02:07;1.33;;;0.60;;
52057;SDS011;38063;53.210;6.504;2024-01-30T13:04:33;4.20;;;0.90;;
52057;SDS011;38063;53.210;6.504;2024-01-30T13:06:59;1.42;;;0.80;;
52057;SDS011;38063;53.210;6.504;2024-01-30T13:09:25;2.90;;;0.80;;
52057;SDS011;38063;53.210;6.504;2024-01-30T13:11:51;3.55;;;1.20;;
52057;SDS011;38063;53.210;6.504;2024-01-30T13:14:18;2.83;;;0.80;;
52057;SDS011;38063;53.210;6.504;2024-01-30T13:16:44;1.48;;;0.70;;
52057;SDS011;38063;53.210;6.504;2024-01-30T13:19:10;4.25;;;0.93;;
52057;SDS011;38063;53.210;6.504;2024-01-30T13:21:35;3.25;;;0.80;;
52057;SDS011;38063;53.210;6.504;2024-01-30T13:24:01;3.42;;;0.85;;
52057;SDS011;38063;53.210;6.504;2024-01-30T13:26:27;4.63;;;0.95;;
52057;SDS011;38063;53.210;6.504;2024-01-30T13:28:53;2.30;;;0.85;;
52057;SDS011;38063;53.210;6.504;2024-01-30T13:31:19;1.33;;;0.77;;
52057;SDS011;38063;53.210;6.504;2024-01-30T13:33:45;2.90;;;1.00;;
52057;SDS011;38063;53.210;6.504;2024-01-30T13:36:11;4.93;;;1.00;;
52057;SDS011;38063;53.210;6.504;2024-01-30T13:38:37;2.92;;;1.00;;
52057;SDS011;38063;53.210;6.504;2024-01-30T13:41:04;4.95;;;1.00;;
52057;SDS011;38063;53.210;6.504;2024-01-30T13:43:30;6.88;;;1.10;;
52057;SDS011;38063;53.210;6.504;2024-01-30T13:45:55;5.75;;;1.20;;
52057;SDS011;38063;53.210;6.504;2024-01-30T13:48:21;6.35;;;0.95;;
52057;SDS011;38063;53.210;6.504;2024-01-30T13:50:47;4.00;;;1.00;;
52057;SDS011;38063;53.210;6.504;2024-01-30T13:53:13;3.10;;;1.02;;
52057;SDS011;38063;53.210;6.504;2024-01-30T13:55:39;3.90;;;1.10;;
52057;SDS011;38063;53.210;6.504;2024-01-30T13:58:05;1.73;;;0.90;;
52057;SDS011;38063;53.210;6.504;2024-01-30T14:00:31;3.47;;;0.95;;
52057;SDS011;38063;53.210;6.504;2024-01-30T14:02:57;4.07;;;0.93;;
52057;SDS011;38063;53.210;6.504;2024-01-30T14:05:24;10.95;;;1.83;;
52057;SDS011;38063;53.210;6.504;2024-01-30T14:07:53;6.60;;;1.45;;
52057;SDS011;38063;53.210;6.504;2024-01-30T14:10:19;2.95;;;1.00;;
52057;SDS011;38063;53.210;6.504;2024-01-30T14:12:45;1.30;;;0.70;;
52057;SDS011;38063;53.210;6.504;2024-01-30T14:15:13;3.72;;;0.95;;
52057;SDS011;38063;53.210;6.504;2024-01-30T14:17:40;1.35;;;0.52;;
52057;SDS011;38063;53.210;6.504;2024-01-30T14:20:06;2.20;;;0.82;;
52057;SDS011;38063;53.210;6.504;2024-01-30T14:22:36;3.13;;;1.00;;